createdAt,value
2022-10-01T00:02:23.499Z,21.39
2022-10-01T00:04:51.863Z,21.40
2022-10-01T00:07:19.761Z,21.39
2022-10-01T00:09:47.919Z,21.39
2022-10-01T00:12:16.623Z,21.39
2022-10-01T00:14:45.129Z,21.39
2022-10-01T00:17:13.029Z,21.38
2022-10-01T00:19:42.253Z,21.38
2022-10-01T00:22:12.525Z,21.39
2022-10-01T00:24:40.799Z,21.38
2022-10-01T00:27:08.890Z,21.37
2022-10-01T00:29:37.693Z,21.37
2022-10-01T00:32:05.671Z,21.37
2022-10-01T00:34:33.604Z,21.37
2022-10-01T00:37:02.883Z,21.36
2022-10-01T00:39:30.798Z,21.39
2022-10-01T00:41:58.658Z,21.37
2022-10-01T00:44:33.321Z,21.37
2022-10-01T00:47:10.522Z,21.39
2022-10-01T00:49:40.965Z,21.39
2022-10-01T00:52:15.693Z,21.39
2022-10-01T00:54:51.398Z,21.40
2022-10-01T00:57:23.177Z,21.41
2022-10-01T00:59:52.976Z,21.41
2022-10-01T01:02:21.354Z,21.42
2022-10-01T01:04:49.383Z,21.42
2022-10-01T01:07:19.574Z,21.42
2022-10-01T01:09:49.789Z,21.43
2022-10-01T01:12:34.689Z,21.41
2022-10-01T01:15:15.196Z,21.40
2022-10-01T01:17:53.308Z,21.39
2022-10-01T01:20:42.881Z,21.41
2022-10-01T01:23:27.203Z,21.40
2022-10-01T01:26:02.737Z,21.39
2022-10-01T01:28:35.514Z,21.38
2022-10-01T01:31:09.093Z,21.38
2022-10-01T01:33:40.158Z,21.38
2022-10-01T01:36:12.325Z,21.37
2022-10-01T01:38:41.524Z,21.38
2022-10-01T01:41:11.874Z,21.38
2022-10-01T01:43:46.926Z,21.37
2022-10-01T01:46:17.746Z,21.37
2022-10-01T01:48:49.189Z,21.35
2022-10-01T01:51:25.982Z,21.36
2022-10-01T01:53:55.046Z,21.34
2022-10-01T01:56:23.345Z,21.34
2022-10-01T01:58:53.993Z,21.34
2022-10-01T02:01:36.228Z,21.33
2022-10-01T02:04:07.840Z,21.32
2022-10-01T02:06:50.033Z,21.33
2022-10-01T02:09:29.188Z,21.33
2022-10-01T02:12:09.419Z,21.32
2022-10-01T02:14:48.994Z,21.31
2022-10-01T02:17:22.382Z,21.31
2022-10-01T02:19:56.046Z,21.28
2022-10-01T02:22:29.345Z,21.29
2022-10-01T02:24:59.545Z,21.27
2022-10-01T02:27:30.800Z,21.27
2022-10-01T02:30:07.405Z,21.25
2022-10-01T02:32:37.844Z,21.25
2022-10-01T02:35:08.557Z,21.24
2022-10-01T02:37:38.892Z,21.23
2022-10-01T02:40:11.727Z,21.21
2022-10-01T02:42:41.156Z,21.20
2022-10-01T02:45:14.252Z,21.20
2022-10-01T02:47:45.993Z,21.22
2022-10-01T02:50:14.966Z,21.21
2022-10-01T02:52:45.673Z,21.19
2022-10-01T02:55:15.845Z,21.20
2022-10-01T02:57:42.993Z,21.19
2022-10-01T03:00:15.787Z,21.18
2022-10-01T03:02:47.398Z,21.17
2022-10-01T03:05:16.130Z,21.15
2022-10-01T03:07:44.312Z,21.14
2022-10-01T03:10:15.002Z,21.14
2022-10-01T03:12:46.538Z,21.13
2022-10-01T03:15:19.178Z,21.13
2022-10-01T03:17:47.400Z,21.13
2022-10-01T03:20:15.266Z,21.13
2022-10-01T03:22:46.106Z,21.12
2022-10-01T03:25:14.178Z,21.11
2022-10-01T03:27:42.301Z,21.11
2022-10-01T03:30:10.995Z,21.10
2022-10-01T03:32:40.439Z,21.10
2022-10-01T03:35:11.008Z,21.09
2022-10-01T03:37:39.004Z,21.09
2022-10-01T03:40:08.125Z,21.09
2022-10-01T03:42:36.047Z,21.09
2022-10-01T03:45:04.147Z,21.09
2022-10-01T03:47:32.064Z,21.10
2022-10-01T03:50:01.314Z,21.08
2022-10-01T03:52:29.234Z,21.09
2022-10-01T03:54:57.379Z,21.09
2022-10-01T03:57:25.400Z,21.08
2022-10-01T03:59:53.351Z,21.08
2022-10-01T04:02:22.079Z,21.07
2022-10-01T04:04:50.640Z,21.05
2022-10-01T04:07:19.935Z,21.05
2022-10-01T04:09:47.809Z,21.05
2022-10-01T04:12:15.788Z,21.04
2022-10-01T04:14:43.688Z,21.05
2022-10-01T04:17:11.614Z,21.04
2022-10-01T04:19:39.455Z,21.05
2022-10-01T04:22:09.457Z,21.03
2022-10-01T04:24:38.735Z,21.05
2022-10-01T04:27:06.603Z,21.03
2022-10-01T04:29:39.351Z,21.04
2022-10-01T04:32:08.412Z,21.04
2022-10-01T04:34:54.272Z,21.04
2022-10-01T04:37:22.838Z,21.04
2022-10-01T04:39:52.070Z,21.05
2022-10-01T04:42:20.663Z,21.04
2022-10-01T04:44:48.728Z,21.05
2022-10-01T04:47:16.655Z,21.04
2022-10-01T04:49:44.494Z,21.04
2022-10-01T04:52:12.599Z,21.02
2022-10-01T04:54:40.461Z,21.04
2022-10-01T04:57:09.739Z,21.01
2022-10-01T04:59:37.661Z,21.02
2022-10-01T05:02:07.906Z,21.01
2022-10-01T05:04:35.843Z,21.01
2022-10-01T05:07:03.666Z,21.00
2022-10-01T05:09:34.230Z,21.01
2022-10-01T05:12:02.680Z,20.99
2022-10-01T05:14:31.929Z,20.99
2022-10-01T05:17:03.647Z,20.99
2022-10-01T05:19:31.787Z,20.99
2022-10-01T05:21:59.748Z,20.99
2022-10-01T05:24:27.663Z,20.99
2022-10-01T05:26:55.598Z,20.98
2022-10-01T05:29:23.497Z,20.97
2022-10-01T05:31:52.832Z,20.99
2022-10-01T05:34:20.865Z,20.98
2022-10-01T05:36:49.010Z,20.98
2022-10-01T05:39:17.112Z,20.99
2022-10-01T05:41:45.010Z,20.98
2022-10-01T05:44:12.951Z,20.99
2022-10-01T05:46:41.648Z,20.97
2022-10-01T05:49:10.873Z,20.95
2022-10-01T05:51:39.335Z,20.97
2022-10-01T05:54:09.632Z,20.97
2022-10-01T05:56:37.935Z,20.97
2022-10-01T05:59:07.012Z,20.96
2022-10-01T06:01:35.129Z,20.96
2022-10-01T06:04:03.396Z,20.97
2022-10-01T06:06:32.676Z,20.97
2022-10-01T06:09:00.677Z,20.95
2022-10-01T06:11:28.752Z,20.92
2022-10-01T06:13:56.652Z,20.89
2022-10-01T06:16:24.578Z,20.85
2022-10-01T06:18:57.453Z,20.84
2022-10-01T06:21:25.770Z,20.82
2022-10-01T06:23:56.235Z,20.75
2022-10-01T06:26:24.427Z,20.71
2022-10-01T06:28:52.977Z,20.70
2022-10-01T06:31:21.291Z,20.73
2022-10-01T06:33:49.221Z,20.76
2022-10-01T06:36:17.226Z,20.80
2022-10-01T06:38:45.507Z,20.83
2022-10-01T06:41:14.780Z,20.84
2022-10-01T06:43:42.671Z,20.86
2022-10-01T06:46:11.209Z,20.88
2022-10-01T06:48:39.200Z,20.88
2022-10-01T06:51:08.605Z,20.90
2022-10-01T06:53:35.822Z,20.92
2022-10-01T06:56:07.665Z,20.93
2022-10-01T06:58:37.430Z,20.92
2022-10-01T07:01:05.398Z,20.95
2022-10-01T07:03:33.336Z,20.96
2022-10-01T07:06:08.000Z,20.96
2022-10-01T07:08:35.975Z,20.96
2022-10-01T07:11:05.005Z,20.98
2022-10-01T07:13:32.928Z,20.98
2022-10-01T07:16:03.899Z,20.99
2022-10-01T07:18:31.933Z,20.97
2022-10-01T07:21:00.075Z,20.89
2022-10-01T07:23:30.352Z,20.87
2022-10-01T07:25:58.982Z,20.85
2022-10-01T07:28:28.163Z,20.88
2022-10-01T07:31:01.158Z,20.90
2022-10-01T07:33:30.796Z,20.92
2022-10-01T07:36:01.647Z,20.94
2022-10-01T07:38:29.670Z,20.95
2022-10-01T07:40:58.993Z,20.96
2022-10-01T07:43:27.066Z,20.95
2022-10-01T07:45:58.070Z,20.94
2022-10-01T07:48:26.525Z,20.91
2022-10-01T07:50:57.934Z,20.90
2022-10-01T07:53:27.493Z,20.87
2022-10-01T07:55:55.374Z,20.84
2022-10-01T07:58:24.083Z,20.85
2022-10-01T08:00:56.215Z,20.85
2022-10-01T08:03:24.342Z,20.84
2022-10-01T08:05:53.073Z,20.83
2022-10-01T08:08:22.362Z,20.78
2022-10-01T08:10:50.979Z,20.73
2022-10-01T08:13:24.894Z,20.72
2022-10-01T08:15:54.901Z,20.71
2022-10-01T08:18:23.705Z,20.73
2022-10-01T08:20:52.500Z,20.74
2022-10-01T08:23:20.419Z,20.78
2022-10-01T08:25:49.645Z,20.79
2022-10-01T08:28:17.755Z,20.80
2022-10-01T08:30:45.679Z,20.81
2022-10-01T08:33:14.788Z,20.81
2022-10-01T08:35:44.390Z,20.80
2022-10-01T08:38:13.449Z,20.81
2022-10-01T08:40:45.030Z,20.82
2022-10-01T08:43:29.854Z,20.83
2022-10-01T08:46:01.645Z,20.84
2022-10-01T08:48:39.637Z,20.84
2022-10-01T08:51:17.088Z,20.86
2022-10-01T08:53:49.370Z,20.88
2022-10-01T08:56:19.973Z,20.90
2022-10-01T08:58:57.753Z,20.91
2022-10-01T09:01:25.987Z,20.93
2022-10-01T09:03:54.999Z,20.95
2022-10-01T09:06:27.757Z,20.95
2022-10-01T09:09:32.937Z,20.95
2022-10-01T09:12:13.211Z,20.94
2022-10-01T09:14:56.734Z,20.95
2022-10-01T09:17:38.390Z,20.95
2022-10-01T09:20:19.450Z,20.92
2022-10-01T09:23:00.114Z,20.86
2022-10-01T09:25:29.006Z,20.82
2022-10-01T09:28:04.095Z,20.80
2022-10-01T09:30:34.108Z,20.80
2022-10-01T09:33:12.065Z,20.74
2022-10-01T09:35:45.362Z,20.69
2022-10-01T09:38:20.044Z,20.68
2022-10-01T09:40:54.929Z,20.68
2022-10-01T09:43:24.726Z,20.66
2022-10-01T09:45:56.550Z,20.66
2022-10-01T09:48:31.599Z,20.63
2022-10-01T09:51:05.342Z,20.62
2022-10-01T09:53:37.853Z,20.63
2022-10-01T09:56:12.896Z,20.61
2022-10-01T09:58:47.728Z,20.63
2022-10-01T10:01:26.264Z,20.65
2022-10-01T10:03:56.251Z,20.66
2022-10-01T10:06:28.188Z,20.66
2022-10-01T10:08:57.973Z,20.65
2022-10-01T10:11:28.606Z,20.67
2022-10-01T10:14:00.341Z,20.69
2022-10-01T10:16:31.885Z,20.70
2022-10-01T10:19:03.921Z,20.72
2022-10-01T10:21:35.098Z,20.78
2022-10-01T10:24:05.461Z,20.83
2022-10-01T10:26:35.974Z,20.83
2022-10-01T10:29:05.763Z,20.82
2022-10-01T10:31:42.042Z,20.80
2022-10-01T10:34:17.511Z,20.78
2022-10-01T10:36:47.681Z,20.79
2022-10-01T10:39:22.844Z,20.79
2022-10-01T10:41:53.842Z,20.78
2022-10-01T10:44:25.101Z,20.79
2022-10-01T10:47:00.504Z,20.80
2022-10-01T10:49:31.305Z,20.80
2022-10-01T10:52:01.146Z,20.81
2022-10-01T10:54:32.868Z,20.79
2022-10-01T10:57:03.297Z,20.81
2022-10-01T10:59:35.765Z,20.83
2022-10-01T11:02:14.341Z,20.85
2022-10-01T11:04:44.425Z,20.85
2022-10-01T11:07:21.645Z,20.87
2022-10-01T11:10:04.401Z,20.89
2022-10-01T11:12:46.748Z,20.93
2022-10-01T11:15:30.656Z,20.96
2022-10-01T11:18:19.335Z,20.98
2022-10-01T11:20:56.198Z,21.01
2022-10-01T11:23:42.412Z,21.01
2022-10-01T11:26:19.374Z,21.03
2022-10-01T11:28:55.179Z,21.04
2022-10-01T11:31:32.784Z,21.05
2022-10-01T11:34:18.994Z,21.04
2022-10-01T11:36:56.397Z,21.07
2022-10-01T11:39:28.455Z,21.07
2022-10-01T11:42:02.143Z,21.08
2022-10-01T11:44:36.367Z,21.08
2022-10-01T11:47:09.641Z,21.09
2022-10-01T11:49:59.585Z,21.09
2022-10-01T11:52:38.301Z,21.11
2022-10-01T11:55:32.718Z,21.13
2022-10-01T11:58:25.549Z,21.14
2022-10-01T12:01:01.424Z,21.15
2022-10-01T12:03:38.198Z,21.16
2022-10-01T12:06:14.776Z,21.17
2022-10-01T12:08:48.305Z,21.17
2022-10-01T12:11:23.195Z,21.17
2022-10-01T12:14:00.257Z,21.18
2022-10-01T12:16:40.284Z,21.18
2022-10-01T12:19:15.056Z,21.19
2022-10-01T12:21:49.622Z,21.19
2022-10-01T12:24:21.475Z,21.21
2022-10-01T12:27:03.061Z,21.21
2022-10-01T12:29:42.675Z,21.21
2022-10-01T12:32:23.593Z,21.23
2022-10-01T12:35:05.258Z,21.23
2022-10-01T12:37:52.974Z,21.24
2022-10-01T12:40:30.961Z,21.23
2022-10-01T12:43:30.010Z,21.24
2022-10-01T12:46:05.210Z,21.23
2022-10-01T12:48:42.270Z,21.24
2022-10-01T12:51:29.589Z,21.22
2022-10-01T12:54:13.394Z,21.23
2022-10-01T12:56:46.800Z,21.23
2022-10-01T12:59:38.524Z,21.23
2022-10-01T13:02:20.230Z,21.22
2022-10-01T13:05:03.440Z,21.22
2022-10-01T13:07:46.941Z,21.22
2022-10-01T13:10:27.598Z,21.21
2022-10-01T13:13:07.762Z,21.22
2022-10-01T13:15:39.119Z,21.22
2022-10-01T13:18:19.295Z,21.21
2022-10-01T13:20:57.684Z,21.22
2022-10-01T13:23:34.006Z,21.21
2022-10-01T13:26:09.061Z,21.21
2022-10-01T13:28:58.787Z,21.21
2022-10-01T13:31:36.261Z,21.19
2022-10-01T13:34:04.896Z,21.20
2022-10-01T13:36:34.573Z,21.19
2022-10-01T13:39:02.997Z,21.18
2022-10-01T13:41:34.820Z,21.17
2022-10-01T13:44:22.869Z,21.17
2022-10-01T13:46:53.446Z,21.18
2022-10-01T13:49:26.297Z,21.18
2022-10-01T13:51:55.059Z,21.18
2022-10-01T13:54:28.726Z,21.16
2022-10-01T13:57:08.759Z,21.18
2022-10-01T13:59:37.872Z,21.18
2022-10-01T14:02:33.682Z,21.17
2022-10-01T14:05:28.353Z,21.17
2022-10-01T14:08:11.793Z,21.17
2022-10-01T14:10:59.272Z,21.18
2022-10-01T14:13:48.762Z,21.15
2022-10-01T14:16:18.330Z,21.10
2022-10-01T14:18:50.233Z,21.07
2022-10-01T14:21:36.169Z,21.07
2022-10-01T14:24:15.766Z,21.08
2022-10-01T14:26:52.026Z,21.09
2022-10-01T14:29:35.234Z,21.10
2022-10-01T14:32:17.538Z,21.10
2022-10-01T14:34:57.216Z,21.11
2022-10-01T14:37:25.291Z,21.12
2022-10-01T14:40:02.599Z,21.13
2022-10-01T14:42:30.604Z,21.13
2022-10-01T14:44:59.943Z,21.13
2022-10-01T14:47:34.954Z,21.14
2022-10-01T14:50:11.382Z,21.14
2022-10-01T14:52:46.287Z,21.13
2022-10-01T14:55:15.768Z,21.13
2022-10-01T14:57:47.330Z,21.14
2022-10-01T15:00:19.083Z,21.14
2022-10-01T15:02:49.217Z,21.15
2022-10-01T15:05:26.157Z,21.14
2022-10-01T15:07:54.600Z,21.14
2022-10-01T15:10:28.589Z,21.15
2022-10-01T15:12:57.326Z,21.16
2022-10-01T15:15:35.320Z,21.15
2022-10-01T15:18:05.360Z,21.16
2022-10-01T15:20:33.627Z,21.16
2022-10-01T15:23:02.029Z,21.16
2022-10-01T15:25:32.786Z,21.17
2022-10-01T15:28:00.975Z,21.16
2022-10-01T15:30:30.528Z,21.15
2022-10-01T15:32:59.064Z,21.16
2022-10-01T15:35:27.254Z,21.16
2022-10-01T15:38:00.520Z,21.16
2022-10-01T15:40:35.505Z,21.15
2022-10-01T15:43:26.432Z,21.14
2022-10-01T15:46:17.283Z,21.13
2022-10-01T15:48:46.185Z,21.11
2022-10-01T15:51:20.202Z,21.10
2022-10-01T15:53:48.149Z,21.11
2022-10-01T15:56:20.080Z,21.13
2022-10-01T15:58:52.236Z,21.14
2022-10-01T16:01:23.948Z,21.14
2022-10-01T16:04:01.553Z,21.15
2022-10-01T16:06:35.807Z,21.15
2022-10-01T16:09:08.129Z,21.15
2022-10-01T16:11:52.858Z,21.16
2022-10-01T16:14:30.699Z,21.16
2022-10-01T16:17:28.005Z,21.16
2022-10-01T16:19:57.936Z,21.16
2022-10-01T16:22:28.970Z,21.16
2022-10-01T16:24:58.328Z,21.16
2022-10-01T16:27:29.303Z,21.15
2022-10-01T16:30:05.689Z,21.15
2022-10-01T16:32:35.821Z,21.15
2022-10-01T16:35:18.734Z,21.15
2022-10-01T16:37:48.228Z,21.14
2022-10-01T16:40:16.615Z,21.13
2022-10-01T16:42:45.840Z,21.14
2022-10-01T16:45:17.787Z,21.13
2022-10-01T16:47:47.846Z,21.14
2022-10-01T16:50:18.724Z,21.13
2022-10-01T16:52:46.753Z,21.13
2022-10-01T16:55:22.549Z,21.12
2022-10-01T16:57:50.809Z,21.12
2022-10-01T17:00:20.811Z,21.13
2022-10-01T17:02:50.134Z,21.12
2022-10-01T17:05:20.623Z,21.12
2022-10-01T17:07:48.996Z,21.13
2022-10-01T17:10:18.622Z,21.13
2022-10-01T17:12:47.768Z,21.11
2022-10-01T17:15:18.192Z,21.05
2022-10-01T17:17:46.757Z,21.01
2022-10-01T17:20:16.657Z,21.01
2022-10-01T17:22:44.666Z,21.03
2022-10-01T17:25:16.690Z,21.04
2022-10-01T17:27:44.809Z,21.04
2022-10-01T17:30:13.200Z,21.08
2022-10-01T17:32:42.927Z,21.09
2022-10-01T17:35:11.438Z,21.10
2022-10-01T17:37:40.875Z,21.11
2022-10-01T17:40:11.217Z,21.11
2022-10-01T17:42:41.754Z,21.13
2022-10-01T17:45:11.809Z,21.13
2022-10-01T17:47:44.793Z,21.14
2022-10-01T17:50:13.601Z,21.15
2022-10-01T17:52:44.837Z,21.15
2022-10-01T17:55:13.200Z,21.15
2022-10-01T17:57:41.151Z,21.15
2022-10-01T18:00:09.929Z,21.16
2022-10-01T18:02:42.073Z,21.15
2022-10-01T18:05:12.608Z,21.12
2022-10-01T18:07:42.501Z,21.07
2022-10-01T18:10:12.731Z,21.05
2022-10-01T18:12:41.280Z,21.05
2022-10-01T18:15:10.634Z,21.07
2022-10-01T18:17:43.392Z,21.07
2022-10-01T18:20:20.003Z,21.07
2022-10-01T18:22:49.406Z,21.08
2022-10-01T18:25:19.306Z,21.09
2022-10-01T18:27:50.107Z,21.10
2022-10-01T18:30:20.216Z,21.10
2022-10-01T18:32:51.909Z,21.10
2022-10-01T18:35:23.159Z,21.09
2022-10-01T18:37:55.806Z,21.10
2022-10-01T18:40:28.787Z,21.11
2022-10-01T18:43:01.033Z,21.10
2022-10-01T18:45:43.167Z,21.11
2022-10-01T18:48:38.189Z,21.10
2022-10-01T18:51:16.936Z,21.11
2022-10-01T18:54:10.834Z,21.11
2022-10-01T18:56:45.929Z,21.09
2022-10-01T18:59:43.566Z,21.09
2022-10-01T19:02:35.041Z,21.09
2022-10-01T19:05:35.638Z,21.10
2022-10-01T19:08:17.953Z,21.10
2022-10-01T19:10:51.447Z,21.10
2022-10-01T19:13:26.043Z,21.11
2022-10-01T19:16:06.984Z,21.11
2022-10-01T19:18:54.245Z,21.10
2022-10-01T19:21:29.458Z,21.09
2022-10-01T19:24:16.749Z,21.08
2022-10-01T19:26:57.255Z,21.09
2022-10-01T19:29:41.744Z,21.04
2022-10-01T19:32:14.389Z,21.03
2022-10-01T19:34:47.313Z,21.04
2022-10-01T19:37:21.682Z,21.04
2022-10-01T19:39:52.557Z,21.03
2022-10-01T19:42:27.146Z,21.03
2022-10-01T19:45:01.323Z,21.03
2022-10-01T19:47:39.706Z,21.02
2022-10-01T19:50:19.501Z,21.04
2022-10-01T19:52:51.425Z,21.04
2022-10-01T19:55:22.960Z,21.02
2022-10-01T19:57:52.957Z,21.02
2022-10-01T20:00:23.050Z,21.04
2022-10-01T20:02:57.875Z,21.02
2022-10-01T20:05:29.793Z,21.02
2022-10-01T20:08:04.688Z,21.02
2022-10-01T20:10:39.064Z,21.01
2022-10-01T20:13:26.071Z,21.02
2022-10-01T20:16:01.189Z,21.01
2022-10-01T20:18:38.445Z,21.02
2022-10-01T20:21:24.261Z,21.02
2022-10-01T20:23:59.846Z,21.01
2022-10-01T20:26:38.557Z,21.01
2022-10-01T20:29:33.503Z,21.02
2022-10-01T20:32:10.442Z,21.01
2022-10-01T20:34:46.287Z,21.01
2022-10-01T20:37:34.788Z,21.01
2022-10-01T20:40:06.705Z,21.01
2022-10-01T20:42:41.450Z,21.00
2022-10-01T20:45:19.211Z,21.00
2022-10-01T20:47:53.968Z,20.99
2022-10-01T20:50:29.032Z,21.01
2022-10-01T20:53:06.071Z,20.99
2022-10-01T20:55:40.592Z,21.01
2022-10-01T20:58:15.625Z,21.01
2022-10-01T21:00:47.124Z,21.01
2022-10-01T21:03:26.673Z,20.97
2022-10-01T21:05:58.221Z,20.96
2022-10-01T21:08:39.987Z,20.97
2022-10-01T21:11:14.478Z,20.97
2022-10-01T21:13:48.903Z,20.95
2022-10-01T21:16:40.091Z,20.97
2022-10-01T21:19:20.615Z,20.97
2022-10-01T21:21:57.194Z,20.96
2022-10-01T21:24:37.417Z,20.97
2022-10-01T21:27:24.059Z,20.96
2022-10-01T21:30:13.561Z,20.97
2022-10-01T21:33:14.033Z,20.96
2022-10-01T21:35:55.095Z,20.97
2022-10-01T21:38:32.147Z,20.95
2022-10-01T21:41:32.923Z,20.95
2022-10-01T21:44:25.059Z,20.95
2022-10-01T21:46:59.566Z,20.96
2022-10-01T21:49:40.230Z,20.94
2022-10-01T21:52:16.595Z,20.94
2022-10-01T21:55:17.145Z,20.93
2022-10-01T21:58:04.899Z,20.93
2022-10-01T22:00:33.285Z,20.93
2022-10-01T22:03:12.409Z,20.93
2022-10-01T22:05:50.331Z,20.92
2022-10-01T22:08:42.280Z,20.93
2022-10-01T22:11:15.984Z,20.91
2022-10-01T22:13:55.935Z,20.91
2022-10-01T22:16:27.925Z,20.91
2022-10-01T22:18:58.212Z,20.92
2022-10-01T22:21:34.727Z,20.91
2022-10-01T22:24:07.476Z,20.91
2022-10-01T22:26:41.376Z,20.91
2022-10-01T22:29:17.044Z,20.91
2022-10-01T22:31:49.039Z,20.92
2022-10-01T22:34:21.208Z,20.92
2022-10-01T22:36:55.424Z,20.91
2022-10-01T22:39:25.809Z,20.90
2022-10-01T22:42:00.056Z,20.90
2022-10-01T22:44:29.433Z,20.90
2022-10-01T22:47:18.391Z,20.89
2022-10-01T22:50:00.228Z,20.89
2022-10-01T22:52:36.976Z,20.88
2022-10-01T22:55:29.612Z,20.87
2022-10-01T22:58:06.356Z,20.88
2022-10-01T23:00:40.950Z,20.87
2022-10-01T23:03:32.881Z,20.87
2022-10-01T23:06:07.285Z,20.85
2022-10-01T23:08:45.061Z,20.85
2022-10-01T23:11:22.689Z,20.85
2022-10-01T23:14:01.354Z,20.84
2022-10-01T23:16:36.739Z,20.83
2022-10-01T23:19:20.892Z,20.82
2022-10-01T23:21:59.412Z,20.82
2022-10-01T23:24:42.943Z,20.82
2022-10-01T23:27:22.640Z,20.82
2022-10-01T23:30:03.771Z,20.80
2022-10-01T23:32:51.125Z,20.79
2022-10-01T23:35:21.283Z,20.80
2022-10-01T23:38:13.898Z,20.79
2022-10-01T23:40:44.916Z,20.80
2022-10-01T23:43:20.385Z,20.79
2022-10-01T23:45:53.464Z,20.79
2022-10-01T23:48:28.225Z,20.79
2022-10-01T23:51:02.464Z,20.77
2022-10-01T23:53:36.773Z,20.77
2022-10-01T23:56:29.389Z,20.77
2022-10-01T23:59:01.510Z,20.77
